Time;durP1;ratioP1;P1;durP2;ratioP2;P2;SDS_P1;SDS_P2;PMS_P1;PMS_P2;Temp;Humidity;BMP_temperature;BMP_pressure;BME280_temperature;BME280_humidity;BME280_pressure;Samples;Min_cycle;Max_cycle;Signal;HPM_P1;HPM_P2
2024/04/15 00:00:11;;;;;;;;;;;;;;;13.78;55.34;95143.63;11395003;26;19928;-75
2024/04/15 00:05:11;;;;;;;;;;;;;;;13.74;57.47;95131.78;11400662;26;19927;-75
2024/04/15 00:10:11;;;;;;;;;;;;;;;13.72;57.96;95133.97;11375794;26;19995;-75
2024/04/15 00:15:12;;;;;;;;;;;;;;;13.58;58.70;95130.31;11406196;26;20350;-76
2024/04/15 00:20:12;;;;;;;;;;;;;;;13.61;59.30;95129.75;11373781;26;19928;-75
2024/04/15 00:25:12;;;;;;;;;;;;;;;13.58;59.49;95124.91;11376069;26;20411;-76
2024/04/15 00:30:12;;;;;;;;;;;;;;;13.49;60.31;95120.13;11408870;26;19931;-75
2024/04/15 00:35:13;;;;;;;;;;;;;;;13.62;66.75;95125.97;11354899;26;20254;-75
2024/04/15 00:40:13;;;;;;;;;;;;;;;13.44;71.67;95130.94;11405672;26;19927;-75
2024/04/15 00:45:26;;;;;;;;;;;;;;;13.28;69.52;95116.72;11406198;26;19935;-76
2024/04/15 00:50:27;;;;;;;;;;;;;;;13.15;76.36;95123.53;11408444;26;19935;-75
2024/04/15 00:55:28;;;;;;;;;;;;;;;13.01;75.75;95116.38;11406817;26;20274;-76
2024/04/15 01:00:29;;;;;;;;;;;;;;;12.97;74.80;95110.72;11380057;26;19934;-76
2024/04/15 01:05:29;;;;;;;;;;;;;;;13.03;76.13;95104.19;11400329;26;19942;-76
2024/04/15 01:10:30;;;;;;;;;;;;;;;13.01;84.85;95109.06;11405393;26;19931;-76
2024/04/15 01:15:30;;;;;;;;;;;;;;;12.98;76.36;95113.13;11407518;26;20408;-76
2024/04/15 01:20:30;;;;;;;;;;;;;;;12.97;82.84;95110.72;11405492;26;19933;-76
2024/04/15 01:25:31;;;;;;;;;;;;;;;12.96;82.94;95109.09;11404764;26;20001;-75
2024/04/15 01:30:31;;;;;;;;;;;;;;;12.96;89.62;95117.19;11403981;26;19928;-75
2024/04/15 01:35:32;;;;;;;;;;;;;;;12.93;86.50;95109.66;11405108;26;19935;-76
2024/04/15 01:40:32;;;;;;;;;;;;;;;12.89;93.16;95106.69;11401530;26;20444;-76
2024/04/15 01:45:32;;;;;;;;;;;;;;;12.90;97.00;95107.53;11402345;26;19927;-75
2024/04/15 01:50:32;;;;;;;;;;;;;;;12.63;92.85;95108.72;11390339;26;19931;-75
2024/04/15 01:55:33;;;;;;;;;;;;;;;12.58;98.61;95108.75;11406460;26;20230;-75
2024/04/15 02:00:33;;;;;;;;;;;;;;;12.59;100.00;95104.97;11394864;26;19956;-76
2024/04/15 02:05:33;;;;;;;;;;;;;;;12.55;99.02;95101.22;11404983;26;19935;-76
2024/04/15 02:10:34;;;;;;;;;;;;;;;12.54;98.74;95105.00;11403172;26;19928;-76
2024/04/15 02:15:34;;;;;;;;;;;;;;;12.21;100.00;95099.16;11372277;26;19936;-76
2024/04/15 02:20:34;;;;;;;;;;;;;;;12.25;100.00;95089.47;11403220;26;19934;-77
2024/04/15 02:25:34;;;;;;;;;;;;;;;12.22;100.00;95081.94;11402577;26;20402;-76
2024/04/15 02:30:35;;;;;;;;;;;;;;;12.11;100.00;95079.28;11369140;26;20606;-76
2024/04/15 02:35:36;;;;;;;;;;;;;;;11.91;100.00;95090.84;11404875;26;19935;-77
2024/04/15 02:40:36;;;;;;;;;;;;;;;12.02;100.00;95083.59;11411281;26;20275;-76
2024/04/15 02:45:36;;;;;;;;;;;;;;;12.05;100.00;95074.97;11399350;26;19964;-76
2024/04/15 02:50:37;;;;;;;;;;;;;;;12.06;100.00;95073.91;11411035;26;19935;-75
2024/04/15 02:55:37;;;;;;;;;;;;;;;12.03;100.00;95077.16;11366546;26;20335;-76
2024/04/15 03:00:38;;;;;;;;;;;;;;;11.85;100.00;95067.72;11408464;26;19927;-76
2024/04/15 03:05:43;;;;;;;;;;;;;;;11.77;100.00;95069.06;11407406;26;19927;-76
2024/04/15 03:10:43;;;;;;;;;;;;;;;11.79;100.00;95072.31;11411941;26;20251;-76
2024/04/15 03:15:51;;;;;;;;;;;;;;;11.79;100.00;95072.31;11406924;26;19934;-76
2024/04/15 03:20:52;;;;;;;;;;;;;;;11.67;100.00;95069.09;11410452;26;19927;-77
2024/04/15 03:25:54;;;;;;;;;;;;;;;11.55;100.00;95073.97;11409139;26;19934;-77
2024/04/15 03:30:54;;;;;;;;;;;;;;;11.53;100.00;95074.22;11410697;26;19927;-76
2024/04/15 03:35:54;;;;;;;;;;;;;;;11.53;100.00;95073.44;11376089;26;20267;-76
2024/04/15 03:40:55;;;;;;;;;;;;;;;11.52;100.00;95077.19;11410399;26;19931;-75
2024/04/15 03:45:55;;;;;;;;;;;;;;;11.54;100.00;95070.47;11370274;26;20394;-76
2024/04/15 03:50:55;;;;;;;;;;;;;;;11.59;100.00;95077.72;11376118;26;19935;-76
2024/04/15 03:55:55;;;;;;;;;;;;;;;11.58;100.00;95078.78;11404184;26;20359;-76
2024/04/15 04:01:02;;;;;;;;;;;;;;;11.52;100.00;95077.19;11407438;26;19935;-78
2024/04/15 04:06:02;;;;;;;;;;;;;;;11.53;100.00;95081.50;11408640;26;19927;-78
2024/04/15 04:11:06;;;;;;;;;;;;;;;11.34;100.00;95081.22;11406270;26;19928;-75
2024/04/15 04:16:10;;;;;;;;;;;;;;;11.21;100.00;95087.97;11406011;26;19927;-75
2024/04/15 04:21:11;;;;;;;;;;;;;;;11.25;100.00;95087.16;11408031;26;19951;-76
2024/04/15 04:26:11;;;;;;;;;;;;;;;11.30;100.00;95089.03;11372173;26;19928;-77
2024/04/15 04:31:11;;;;;;;;;;;;;;;11.39;100.00;95086.63;11408158;26;19928;-76
2024/04/15 04:36:16;;;;;;;;;;;;;;;11.48;100.00;95085.00;11410251;26;19927;-76
2024/04/15 04:41:16;;;;;;;;;;;;;;;11.56;100.00;95081.75;11401828;26;19928;-76
2024/04/15 04:46:16;;;;;;;;;;;;;;;11.84;100.00;95079.56;11399135;26;19928;-76
2024/04/15 04:51:16;;;;;;;;;;;;;;;12.03;100.00;95074.44;11383429;26;20227;-72
2024/04/15 04:56:17;;;;;;;;;;;;;;;12.30;100.00;95076.78;11407698;26;20383;-71
2024/04/15 05:01:17;;;;;;;;;;;;;;;12.58;100.00;95079.88;11404892;26;20242;-71
2024/04/15 05:06:18;;;;;;;;;;;;;;;12.92;100.00;95073.78;11403017;26;19943;-70
2024/04/15 05:11:18;;;;;;;;;;;;;;;13.33;100.00;95076.19;11403679;26;19927;-71
2024/04/15 05:16:18;;;;;;;;;;;;;;;13.80;100.00;95065.84;11397622;26;19928;-71
2024/04/15 05:21:19;;;;;;;;;;;;;;;14.23;99.44;95059.69;11406676;26;20369;-71
2024/04/15 05:26:19;;;;;;;;;;;;;;;14.43;96.95;95047.84;11386218;26;19934;-71
2024/04/15 05:31:19;;;;;;;;;;;;;;;14.47;97.47;95053.44;11368652;26;19927;-71
2024/04/15 05:36:19;;;;;;;;;;;;;;;14.43;98.35;95061.34;11385267;26;20019;-71
2024/04/15 05:41:20;;;;;;;;;;;;;;;14.36;100.00;95055.50;11396315;26;20238;-71
2024/04/15 05:46:20;;;;;;;;;;;;;;;14.75;100.00;95051.78;11397943;26;19928;-72
2024/04/15 05:51:20;;;;;;;;;;;;;;;15.47;97.81;95055.31;11399777;26;19939;-71
2024/04/15 05:56:22;;;;;;;;;;;;;;;16.39;91.86;95042.81;11401957;26;20363;-71
2024/04/15 06:01:22;;;;;;;;;;;;;;;17.77;79.02;95042.69;11393306;26;19928;-70
2024/04/15 06:06:23;;;;;;;;;;;;;;;19.20;61.97;95033.53;11394816;26;20366;-70
2024/04/15 06:11:23;;;;;;;;;;;;;;;20.38;56.25;95026.09;11397745;26;19938;-71
2024/04/15 06:16:23;;;;;;;;;;;;;;;21.18;51.38;95019.81;11394835;26;19934;-71
2024/04/15 06:21:24;;;;;;;;;;;;;;;22.06;49.41;95014.34;11393552;26;19927;-71
2024/04/15 06:26:24;;;;;;;;;;;;;;;22.39;49.80;95004.47;11401759;26;19939;-69
2024/04/15 06:31:24;;;;;;;;;;;;;;;22.74;48.66;95003.97;11395829;26;20403;-70
2024/04/15 06:36:24;;;;;;;;;;;;;;;21.52;48.96;95009.75;11398126;26;20220;-71
2024/04/15 06:41:24;;;;;;;;;;;;;;;21.72;52.85;95010.81;11400750;26;19995;-71
2024/04/15 06:46:25;;;;;;;;;;;;;;;22.24;51.43;94993.00;11398127;26;20355;-71
2024/04/15 06:51:26;;;;;;;;;;;;;;;22.90;47.76;94982.94;11395760;26;19928;-71
2024/04/15 06:56:26;;;;;;;;;;;;;;;22.58;47.63;94980.03;11379515;26;19995;-72
2024/04/15 07:01:26;;;;;;;;;;;;;;;22.45;46.81;94979.25;11373635;26;20277;-71
2024/04/15 07:06:26;;;;;;;;;;;;;;;22.50;47.12;94987.22;11367459;26;19928;-71
2024/04/15 07:11:27;;;;;;;;;;;;;;;22.73;46.59;94973.06;11396448;26;19935;-71
2024/04/15 07:16:27;;;;;;;;;;;;;;;23.22;44.57;94966.66;11392540;26;19928;-71
2024/04/15 07:21:27;;;;;;;;;;;;;;;24.21;40.68;94968.84;11398347;26;19983;-71
2024/04/15 07:26:28;;;;;;;;;;;;;;;27.19;36.87;94950.03;11403012;26;19930;-70
2024/04/15 07:31:28;;;;;;;;;;;;;;;29.10;33.16;94943.47;11406524;26;19935;-71
2024/04/15 07:36:29;;;;;;;;;;;;;;;30.31;31.17;94941.44;11403279;26;20355;-71
2024/04/15 07:41:29;;;;;;;;;;;;;;;31.31;29.68;94921.06;11400386;26;20307;-71
2024/04/15 07:46:30;;;;;;;;;;;;;;;32.20;26.05;94918.97;11408597;26;19927;-71
2024/04/15 07:51:30;;;;;;;;;;;;;;;32.83;26.85;94906.91;11408097;26;19967;-71
2024/04/15 07:56:30;;;;;;;;;;;;;;;33.63;26.31;94903.19;11403081;26;19932;-71
2024/04/15 08:01:30;;;;;;;;;;;;;;;34.65;26.09;94895.66;11406737;26;19931;-71
2024/04/15 08:06:31;;;;;;;;;;;;;;;34.94;25.04;94895.13;11353283;26;19935;-72
2024/04/15 08:11:31;;;;;;;;;;;;;;;35.25;24.87;94887.34;11406128;26;19960;-72
2024/04/15 08:16:31;;;;;;;;;;;;;;;35.48;23.21;94877.28;11371360;26;19928;-72
2024/04/15 08:21:31;;;;;;;;;;;;;;;36.25;22.70;94872.34;11404611;26;19927;-72
2024/04/15 08:26:32;;;;;;;;;;;;;;;36.55;22.34;94859.22;11400036;26;19935;-72
2024/04/15 08:31:32;;;;;;;;;;;;;;;36.78;21.90;94851.81;11400724;26;20266;-72
2024/04/15 08:36:32;;;;;;;;;;;;;;;37.04;22.18;94849.13;11405376;26;19934;-72
2024/04/15 08:41:44;;;;;;;;;;;;;;;35.50;22.58;94834.94;11393371;26;19934;-71
2024/04/15 08:46:47;;;;;;;;;;;;;;;35.19;23.21;94841.53;11395284;26;20369;-72
2024/04/15 08:51:47;;;;;;;;;;;;;;;33.37;25.18;94836.66;11405400;26;19927;-71
2024/04/15 08:56:47;;;;;;;;;;;;;;;32.73;26.28;94831.88;11406759;26;19935;-72
2024/04/15 09:01:48;;;;;;;;;;;;;;;33.68;25.68;94821.88;11402147;26;19934;-72
2024/04/15 09:06:48;;;;;;;;;;;;;;;36.26;23.01;94814.38;11403636;26;19935;-72
2024/04/15 09:11:48;;;;;;;;;;;;;;;36.93;21.95;94810.97;11405984;26;20334;-72
2024/04/15 09:16:51;;;;;;;;;;;;;;;35.31;24.37;94808.63;11407102;26;19927;-73
2024/04/15 09:21:51;;;;;;;;;;;;;;;32.35;26.54;94802.06;11405980;26;19935;-71
2024/04/15 09:26:51;;;;;;;;;;;;;;;32.03;26.91;94797.56;11402406;26;19935;-72
2024/04/15 09:31:52;;;;;;;;;;;;;;;30.89;27.44;94791.53;11401227;26;20015;-72
2024/04/15 09:36:53;;;;;;;;;;;;;;;30.24;28.46;94778.66;11399910;26;19938;-72
2024/04/15 09:41:54;;;;;;;;;;;;;;;30.07;28.91;94771.16;11395612;26;19979;-72
2024/04/15 09:46:55;;;;;;;;;;;;;;;30.72;28.19;94759.91;11371191;26;20007;-72
2024/04/15 09:52:00;;;;;;;;;;;;;;;32.31;27.70;94759.59;11398659;26;20366;-72
2024/04/15 09:57:07;;;;;;;;;;;;;;;33.77;24.74;94741.34;11404488;26;19934;-71
2024/04/15 10:02:26;;;;;;;;;;;;;;;36.65;22.78;94741.78;11403259;26;19935;-72
2024/04/15 10:07:27;;;;;;;;;;;;;;;39.53;21.18;94720.03;11401734;26;19927;-72
2024/04/15 10:12:27;;;;;;;;;;;;;;;41.39;19.52;94701.88;11402857;26;20438;-72
2024/04/15 10:17:28;;;;;;;;;;;;;;;41.87;17.46;94692.69;11405486;26;19939;-71
2024/04/15 10:22:28;;;;;;;;;;;;;;;41.67;17.65;94685.59;11403461;26;19927;-72
2024/04/15 10:27:28;;;;;;;;;;;;;;;42.73;16.65;94672.56;11397958;26;19985;-72
2024/04/15 10:32:28;;;;;;;;;;;;;;;43.03;17.16;94671.25;11395447;26;19928;-72
2024/04/15 10:37:29;;;;;;;;;;;;;;;42.96;17.58;94651.88;11403136;26;20346;-72
2024/04/15 10:42:29;;;;;;;;;;;;;;;44.33;15.67;94632.69;11403690;26;19927;-72
2024/04/15 10:47:29;;;;;;;;;;;;;;;44.40;15.90;94622.97;11399178;26;19935;-72
2024/04/15 10:52:29;;;;;;;;;;;;;;;44.83;15.61;94625.94;11401251;26;20367;-71
2024/04/15 10:57:30;;;;;;;;;;;;;;;45.73;14.14;94602.31;11406162;26;19940;-71
2024/04/15 11:02:30;;;;;;;;;;;;;;;45.45;15.40;94587.97;11409750;26;20347;-72
2024/04/15 11:07:30;;;;;;;;;;;;;;;44.32;14.71;94582.97;11400218;26;19928;-71
2024/04/15 11:12:30;;;;;;;;;;;;;;;41.52;16.22;94574.72;11405141;26;19936;-71
2024/04/15 11:17:31;;;;;;;;;;;;;;;40.78;16.32;94573.03;11407327;26;19939;-71
2024/04/15 11:22:32;;;;;;;;;;;;;;;38.18;19.46;94559.81;11407423;26;19939;-71
2024/04/15 11:27:33;;;;;;;;;;;;;;;36.04;20.41;94556.75;11405101;26;19935;-71
2024/04/15 11:32:34;;;;;;;;;;;;;;;34.98;21.52;94540.38;11409582;26;20723;-71
2024/04/15 11:37:34;;;;;;;;;;;;;;;34.02;21.13;94550.47;11409935;26;19935;-70
2024/04/15 11:42:34;;;;;;;;;;;;;;;33.60;21.56;94525.03;11406887;26;19927;-71
2024/04/15 11:47:34;;;;;;;;;;;;;;;32.74;21.10;94514.19;11403000;26;20288;-70
2024/04/15 11:52:35;;;;;;;;;;;;;;;31.75;20.60;94510.41;11406538;26;19991;-70
2024/04/15 11:57:35;;;;;;;;;;;;;;;30.96;21.96;94508.44;11408062;26;19928;-71
2024/04/15 12:02:39;;;;;;;;;;;;;;;30.64;24.49;94492.84;11398194;26;19935;-71
2024/04/15 12:07:39;;;;;;;;;;;;;;;30.41;24.90;94485.88;11405989;26;19933;-71
2024/04/15 12:12:41;;;;;;;;;;;;;;;30.09;24.18;94480.56;11403789;26;19927;-70
2024/04/15 12:17:42;;;;;;;;;;;;;;;29.28;25.45;94473.03;11407565;26;19931;-70
2024/04/15 12:22:42;;;;;;;;;;;;;;;29.25;26.74;94460.75;11407134;26;20406;-71
2024/04/15 12:27:44;;;;;;;;;;;;;;;29.36;26.50;94452.44;11408066;26;19928;-71
2024/04/15 12:32:44;;;;;;;;;;;;;;;29.22;24.82;94435.81;11406104;26;20345;-71
2024/04/15 12:37:44;;;;;;;;;;;;;;;29.05;25.08;94429.16;11399296;26;20043;-70
2024/04/15 12:42:45;;;;;;;;;;;;;;;29.25;25.87;94418.44;11404796;26;19939;-71
2024/04/15 12:47:45;;;;;;;;;;;;;;;29.61;24.58;94407.19;11405714;26;19942;-70
2024/04/15 12:52:45;;;;;;;;;;;;;;;29.58;24.21;94388.63;11373264;26;19928;-71
2024/04/15 12:57:45;;;;;;;;;;;;;;;29.95;25.52;94387.25;11401321;26;19939;-71
2024/04/15 13:02:46;;;;;;;;;;;;;;;29.74;22.05;94386.16;11404705;26;19934;-71
2024/04/15 13:07:46;;;;;;;;;;;;;;;29.95;23.31;94370.63;11403656;26;19927;-71
2024/04/15 13:12:46;;;;;;;;;;;;;;;30.12;23.66;94369.66;11406075;26;19927;-75
2024/04/15 13:17:49;;;;;;;;;;;;;;;29.78;23.41;94355.69;11405929;26;20407;-70
2024/04/15 13:22:50;;;;;;;;;;;;;;;29.69;22.96;94367.19;11403122;26;19939;-71
2024/04/15 13:27:50;;;;;;;;;;;;;;;29.19;22.61;94351.63;11404689;26;19935;-72
2024/04/15 13:32:51;;;;;;;;;;;;;;;29.36;24.99;94349.19;11402273;26;19936;-70
2024/04/15 13:37:51;;;;;;;;;;;;;;;29.22;23.37;94341.72;11404449;26;19927;-70
2024/04/15 13:42:52;;;;;;;;;;;;;;;29.30;24.01;94329.47;11404361;26;19927;-71
2024/04/15 13:47:52;;;;;;;;;;;;;;;29.38;24.48;94330.22;11404335;26;19943;-71
2024/04/15 13:52:52;;;;;;;;;;;;;;;29.44;25.50;94312.78;11403693;26;19934;-71
2024/04/15 13:57:52;;;;;;;;;;;;;;;29.36;24.79;94314.00;11403437;26;20215;-70
2024/04/15 14:02:53;;;;;;;;;;;;;;;29.13;24.28;94317.28;11400470;26;19951;-71
2024/04/15 14:07:53;;;;;;;;;;;;;;;28.96;24.36;94308.66;11402943;26;19934;-72
2024/04/15 14:12:53;;;;;;;;;;;;;;;28.77;24.16;94312.69;11397668;26;19927;-72
2024/04/15 14:17:55;;;;;;;;;;;;;;;28.71;24.28;94327.34;11403915;26;19939;-72
2024/04/15 14:22:57;;;;;;;;;;;;;;;28.62;25.35;94316.66;11394924;26;19928;-70
2024/04/15 14:27:57;;;;;;;;;;;;;;;28.49;25.21;94310.78;11393059;26;19939;-75
2024/04/15 14:32:57;;;;;;;;;;;;;;;28.33;25.13;94302.94;11383387;26;19927;-78
2024/04/15 14:37:58;;;;;;;;;;;;;;;28.38;25.40;94305.25;11403189;26;20251;-77
2024/04/15 14:42:58;;;;;;;;;;;;;;;28.44;25.66;94298.16;11402937;26;20362;-75
2024/04/15 14:48:00;;;;;;;;;;;;;;;28.48;25.63;94290.66;11394950;26;20287;-77
2024/04/15 14:53:00;;;;;;;;;;;;;;;28.32;25.74;94298.59;11402066;26;19934;-78
2024/04/15 14:58:01;;;;;;;;;;;;;;;28.25;24.19;94290.31;11402743;26;20424;-76
2024/04/15 15:03:02;;;;;;;;;;;;;;;27.88;23.75;94288.75;11401036;26;19927;-77
2024/04/15 15:08:02;;;;;;;;;;;;;;;27.73;24.48;94274.19;11393881;26;19983;-77
2024/04/15 15:13:02;;;;;;;;;;;;;;;27.69;25.28;94276.94;11388126;26;19927;-75
2024/04/15 15:18:03;;;;;;;;;;;;;;;27.56;25.46;94272.97;11395438;26;19938;-75
2024/04/15 15:23:03;;;;;;;;;;;;;;;27.57;25.43;94266.28;11400072;26;20347;-76
2024/04/15 15:28:04;;;;;;;;;;;;;;;27.54;25.42;94256.03;11394516;26;20172;-75
2024/04/15 15:33:04;;;;;;;;;;;;;;;27.49;25.67;94257.22;11400466;26;20347;-77
2024/04/15 15:38:04;;;;;;;;;;;;;;;27.47;26.34;94253.28;11399555;26;19927;-77
2024/04/15 15:43:07;;;;;;;;;;;;;;;27.28;26.16;94252.41;11400917;25;20274;-75
2024/04/15 15:48:08;;;;;;;;;;;;;;;27.19;25.81;94243.75;11376785;26;19927;-76
2024/04/15 15:53:08;;;;;;;;;;;;;;;27.14;26.46;94244.13;11409724;26;19927;-76
2024/04/15 15:58:09;;;;;;;;;;;;;;;26.94;26.01;94258.28;11402687;26;19940;-76
2024/04/15 16:03:19;;;;;;;;;;;;;;;27.05;25.11;94250.81;11407986;26;19933;-76
2024/04/15 16:08:19;;;;;;;;;;;;;;;27.04;25.37;94240.19;11409015;26;20367;-76
2024/04/15 16:13:20;;;;;;;;;;;;;;;26.95;25.05;94233.06;11392939;26;19966;-76
2024/04/15 16:18:20;;;;;;;;;;;;;;;26.95;25.25;94232.28;11400411;26;19928;-76
2024/04/15 16:23:20;;;;;;;;;;;;;;;26.86;24.58;94223.59;11407065;26;19935;-75
2024/04/15 16:28:20;;;;;;;;;;;;;;;26.80;23.86;94211.38;11406110;26;19928;-76
2024/04/15 16:33:21;;;;;;;;;;;;;;;26.73;24.53;94207.41;11390519;26;19927;-77
2024/04/15 16:38:21;;;;;;;;;;;;;;;26.66;24.23;94209.34;11398669;26;19931;-73
2024/04/15 16:43:21;;;;;;;;;;;;;;;26.69;23.65;94217.66;11386756;25;19939;-74
2024/04/15 16:48:22;;;;;;;;;;;;;;;26.53;25.53;94212.47;11396189;26;19942;-73
2024/04/15 16:53:22;;;;;;;;;;;;;;;26.57;25.80;94205.00;11367939;26;19928;-76
2024/04/15 16:58:23;;;;;;;;;;;;;;;26.40;26.76;94216.72;11390675;26;19928;-76
2024/04/15 17:03:23;;;;;;;;;;;;;;;26.13;27.12;94219.00;11396705;26;20335;-78
2024/04/15 17:08:23;;;;;;;;;;;;;;;26.02;24.58;94178.41;11407620;26;20012;-80
2024/04/15 17:13:24;;;;;;;;;;;;;;;26.30;22.93;94192.69;11395720;26;20481;-74
2024/04/15 17:18:24;;;;;;;;;;;;;;;26.34;22.99;94196.25;11397994;26;20188;-72
2024/04/15 17:23:25;;;;;;;;;;;;;;;26.28;24.69;94195.84;11400582;26;19927;-73
2024/04/15 17:28:25;;;;;;;;;;;;;;;26.20;25.69;94192.25;11388920;26;20235;-71
2024/04/15 17:33:25;;;;;;;;;;;;;;;26.08;25.30;94184.31;11389845;26;20284;-71
2024/04/15 17:38:26;;;;;;;;;;;;;;;25.94;27.01;94160.25;11371482;26;19928;-71
2024/04/15 17:43:26;;;;;;;;;;;;;;;25.65;27.35;94181.31;11401253;26;19947;-71
2024/04/15 17:48:27;;;;;;;;;;;;;;;25.55;27.36;94183.63;11399807;26;19932;-70
2024/04/15 17:53:27;;;;;;;;;;;;;;;25.36;27.29;94184.66;11362860;26;19938;-70
2024/04/15 17:58:27;;;;;;;;;;;;;;;25.29;27.42;94184.59;11395387;26;20819;-71
2024/04/15 18:03:30;;;;;;;;;;;;;;;25.10;29.40;94199.34;11396088;26;19927;-70
2024/04/15 18:08:30;;;;;;;;;;;;;;;24.95;28.52;94195.69;11359663;26;19939;-78
2024/04/15 18:13:30;;;;;;;;;;;;;;;25.02;28.47;94204.00;11389810;26;19936;-72
2024/04/15 18:18:31;;;;;;;;;;;;;;;24.94;29.19;94215.31;11397189;26;19935;-71
2024/04/15 18:23:31;;;;;;;;;;;;;;;24.81;28.95;94212.84;11389736;26;19939;-72
2024/04/15 18:28:32;;;;;;;;;;;;;;;24.72;28.54;94215.88;11402079;26;20535;-77
2024/04/15 18:33:32;;;;;;;;;;;;;;;24.53;29.27;94229.78;11394718;26;19927;-71
2024/04/15 18:38:32;;;;;;;;;;;;;;;24.37;29.76;94227.25;11396533;26;19935;-72
2024/04/15 18:43:33;;;;;;;;;;;;;;;24.20;30.55;94223.13;11395928;26;19938;-71
2024/04/15 18:48:33;;;;;;;;;;;;;;;24.11;30.24;94230.84;11385808;26;19935;-72
2024/04/15 18:53:33;;;;;;;;;;;;;;;23.88;32.04;94224.25;11398786;26;19927;-72
2024/04/15 18:58:33;;;;;;;;;;;;;;;23.71;32.18;94233.78;11396287;26;19928;-72
2024/04/15 19:03:34;;;;;;;;;;;;;;;23.51;32.01;94232.31;11392973;26;19927;-73
2024/04/15 19:08:35;;;;;;;;;;;;;;;23.40;33.09;94234.09;11402232;26;19927;-72
2024/04/15 19:13:35;;;;;;;;;;;;;;;23.26;32.46;94226.44;11399654;26;19935;-80
2024/04/15 19:18:36;;;;;;;;;;;;;;;23.21;32.88;94236.53;11372215;26;20715;-72
2024/04/15 19:23:36;;;;;;;;;;;;;;;23.17;33.63;94229.44;11408680;26;20243;-79
2024/04/15 19:28:36;;;;;;;;;;;;;;;22.99;35.37;94237.31;11412207;26;19995;-80
2024/04/15 19:33:36;;;;;;;;;;;;;;;22.84;36.07;94231.59;11378667;26;20286;-78
2024/04/15 19:38:37;;;;;;;;;;;;;;;22.72;36.08;94222.72;11401498;26;19928;-73
2024/04/15 19:43:38;;;;;;;;;;;;;;;22.44;35.27;94199.13;11370545;26;19934;-71
2024/04/15 19:48:39;;;;;;;;;;;;;;;22.95;33.39;94201.63;11402794;26;20399;-74
2024/04/15 19:53:39;;;;;;;;;;;;;;;23.27;34.52;94225.28;11401275;26;19928;-72
2024/04/15 19:58:39;;;;;;;;;;;;;;;23.00;35.55;94231.47;11407957;26;20670;-72
2024/04/15 20:03:40;;;;;;;;;;;;;;;23.03;35.35;94217.03;11404789;26;19927;-73
2024/04/15 20:08:40;;;;;;;;;;;;;;;23.02;35.67;94229.16;11408514;26;19927;-72
2024/04/15 20:13:40;;;;;;;;;;;;;;;23.03;36.45;94225.25;11373287;26;19935;-72
2024/04/15 20:18:53;;;;;;;;;;;;;;;23.01;37.21;94227.56;11407010;26;20320;-73
2024/04/15 20:23:53;;;;;;;;;;;;;;;22.94;38.63;94232.94;11395679;26;19951;-72
2024/04/15 20:28:53;;;;;;;;;;;;;;;22.57;38.29;94210.72;11407463;26;19934;-72
2024/04/15 20:33:54;;;;;;;;;;;;;;;22.57;38.82;94224.44;11353621;26;19996;-73
2024/04/15 20:38:54;;;;;;;;;;;;;;;22.50;39.54;94223.13;11408282;26;19928;-73
2024/04/15 20:43:54;;;;;;;;;;;;;;;22.49;40.11;94218.81;11406961;26;20248;-73
2024/04/15 20:48:54;;;;;;;;;;;;;;;22.49;41.65;94229.78;11408424;26;20617;-72
2024/04/15 20:53:58;;;;;;;;;;;;;;;22.47;40.72;94212.91;11406696;26;19959;-72
2024/04/15 20:58:58;;;;;;;;;;;;;;;22.47;41.29;94214.84;11407368;26;19927;-72
2024/04/15 21:03:58;;;;;;;;;;;;;;;22.39;41.82;94207.66;11406574;26;19927;-72
2024/04/15 21:08:58;;;;;;;;;;;;;;;22.45;41.63;94203.47;11405688;26;20252;-71
2024/04/15 21:13:59;;;;;;;;;;;;;;;22.43;41.32;94205.78;11401030;26;19936;-71
2024/04/15 21:18:59;;;;;;;;;;;;;;;22.43;41.64;94216.72;11407112;26;20279;-72
2024/04/15 21:23:59;;;;;;;;;;;;;;;22.59;41.40;94225.66;11407045;26;19939;-72
2024/04/15 21:28:59;;;;;;;;;;;;;;;22.55;42.12;94215.75;11406550;26;19975;-72
2024/04/15 21:34:00;;;;;;;;;;;;;;;22.51;43.28;94221.19;11406535;26;20283;-72
2024/04/15 21:39:00;;;;;;;;;;;;;;;22.41;43.07;94211.63;11396008;26;20328;-71
2024/04/15 21:44:02;;;;;;;;;;;;;;;22.31;43.26;94202.00;11394630;26;19928;-72
2024/04/15 21:49:02;;;;;;;;;;;;;;;22.21;45.09;94205.31;11406708;26;20065;-72
2024/04/15 21:54:03;;;;;;;;;;;;;;;21.84;45.02;94206.53;11405553;26;19927;-72
2024/04/15 21:59:03;;;;;;;;;;;;;;;22.06;44.70;94207.00;11405575;26;19942;-72
2024/04/15 22:04:04;;;;;;;;;;;;;;;22.00;44.16;94192.00;11406621;26;19941;-71
2024/04/15 22:09:05;;;;;;;;;;;;;;;21.96;43.59;94194.66;11404906;26;20253;-72
2024/04/15 22:14:05;;;;;;;;;;;;;;;21.98;44.91;94206.03;11404542;26;19934;-73
2024/04/15 22:19:05;;;;;;;;;;;;;;;21.87;45.71;94193.28;11404846;26;20339;-71
2024/04/15 22:24:06;;;;;;;;;;;;;;;21.76;46.14;94195.78;11403239;26;20617;-72
2024/04/15 22:29:06;;;;;;;;;;;;;;;21.71;47.84;94191.38;11404679;26;20339;-72
2024/04/15 22:34:06;;;;;;;;;;;;;;;21.64;46.38;94189.31;11404589;26;19936;-74
2024/04/15 22:39:07;;;;;;;;;;;;;;;21.55;47.73;94198.84;11402533;26;20292;-71
2024/04/15 22:44:07;;;;;;;;;;;;;;;21.47;48.21;94189.66;11402074;26;19931;-72
2024/04/15 22:49:07;;;;;;;;;;;;;;;21.30;49.17;94194.34;11404447;26;20607;-71
2024/04/15 22:54:08;;;;;;;;;;;;;;;21.26;49.92;94190.75;11374982;26;20299;-72
2024/04/15 22:59:08;;;;;;;;;;;;;;;21.16;51.02;94199.50;11407173;26;19935;-73
2024/04/15 23:04:08;;;;;;;;;;;;;;;21.02;50.35;94172.63;11411875;26;20238;-71
2024/04/15 23:09:08;;;;;;;;;;;;;;;20.99;49.25;94181.53;11410771;26;19927;-74
2024/04/15 23:14:09;;;;;;;;;;;;;;;20.99;48.32;94179.56;11411411;26;19975;-73
2024/04/15 23:19:09;;;;;;;;;;;;;;;20.91;48.67;94160.63;11378010;26;20307;-73
2024/04/15 23:24:09;;;;;;;;;;;;;;;20.98;46.43;94150.66;11410518;26;19927;-73
2024/04/15 23:29:10;;;;;;;;;;;;;;;20.95;46.61;94145.91;11410574;26;20323;-73
2024/04/15 23:34:10;;;;;;;;;;;;;;;20.89;46.83;94160.19;11407032;26;20296;-73
2024/04/15 23:39:12;;;;;;;;;;;;;;;20.87;44.96;94151.56;11407649;26;20653;-73
2024/04/15 23:44:13;;;;;;;;;;;;;;;20.89;45.52;94147.34;11410815;26;19939;-73
2024/04/15 23:49:13;;;;;;;;;;;;;;;20.92;46.33;94152.09;11409779;26;20439;-73
2024/04/15 23:54:14;;;;;;;;;;;;;;;20.86;48.50;94158.97;11408306;26;19927;-73
2024/04/15 23:59:14;;;;;;;;;;;;;;;20.83;51.06;94156.94;11409551;26;19956;-73
